createdAt,value
2023-01-26T00:09:16.931Z,42.53
2023-01-26T00:14:11.053Z,43.90
2023-01-26T00:19:04.983Z,38.80
2023-01-26T00:23:58.589Z,36.40
2023-01-26T00:28:53.068Z,31.85
2023-01-26T00:33:47.856Z,37.42
2023-01-26T00:38:45.508Z,30.45
2023-01-26T00:43:39.465Z,29.10
2023-01-26T00:48:32.712Z,33.30
2023-01-26T00:53:27.527Z,31.08
2023-01-26T00:58:21.235Z,35.00
2023-01-26T01:03:15.381Z,26.80
2023-01-26T01:08:09.390Z,32.15
2023-01-26T01:13:03.345Z,34.55
2023-01-26T01:17:57.807Z,30.40
2023-01-26T01:22:52.300Z,36.28
2023-01-26T01:27:46.345Z,35.22
2023-01-26T01:32:40.169Z,32.80
2023-01-26T01:37:34.247Z,34.20
2023-01-26T01:42:28.063Z,28.55
2023-01-26T01:47:23.728Z,29.20
2023-01-26T01:52:30.568Z,26.42
2023-01-26T01:57:29.899Z,28.88
2023-01-26T02:02:23.919Z,33.70
2023-01-26T02:07:17.802Z,31.48
2023-01-26T02:17:03.960Z,33.25
2023-01-26T02:22:00.533Z,28.48
2023-01-26T02:26:55.138Z,29.02
2023-01-26T02:31:49.491Z,31.10
2023-01-26T02:36:42.498Z,29.95
2023-01-26T02:41:54.293Z,35.15
2023-01-26T02:46:49.261Z,29.58
2023-01-26T02:51:44.307Z,30.33
2023-01-26T02:56:40.446Z,26.65
2023-01-26T03:01:33.527Z,28.80
2023-01-26T03:06:26.505Z,26.80
2023-01-26T03:11:20.334Z,26.93
2023-01-26T03:16:16.689Z,27.88
2023-01-26T03:21:33.405Z,29.48
2023-01-26T03:26:45.217Z,31.92
2023-01-26T03:31:39.090Z,28.63
2023-01-26T03:36:32.430Z,29.67
2023-01-26T03:41:46.931Z,30.40
2023-01-26T03:46:58.306Z,29.30
2023-01-26T03:52:09.364Z,27.85
2023-01-26T03:57:03.177Z,28.40
2023-01-26T04:02:13.793Z,32.28
2023-01-26T04:07:25.118Z,33.05
2023-01-26T04:12:18.621Z,35.28
2023-01-26T04:17:42.764Z,33.38
2023-01-26T04:22:41.106Z,31.88
2023-01-26T04:27:38.945Z,32.70
2023-01-26T04:32:32.815Z,32.78
2023-01-26T04:37:26.251Z,32.08
2023-01-26T04:42:19.323Z,30.57
2023-01-26T04:47:13.039Z,31.70
2023-01-26T04:52:05.993Z,33.67
2023-01-26T04:57:00.181Z,36.03
2023-01-26T05:01:53.464Z,31.10
2023-01-26T05:06:46.586Z,27.50
2023-01-26T05:11:40.455Z,26.10
2023-01-26T05:16:51.799Z,34.45
2023-01-26T05:21:52.782Z,36.15
2023-01-26T05:31:43.375Z,30.90
2023-01-26T05:36:36.652Z,31.83
2023-01-26T05:46:42.709Z,32.88
2023-01-26T05:51:36.616Z,26.90
2023-01-26T05:56:30.982Z,28.50
2023-01-26T06:01:27.273Z,24.88
2023-01-26T06:06:25.362Z,27.48
2023-01-26T06:11:28.524Z,25.52
2023-01-26T06:16:39.622Z,25.60
2023-01-26T06:21:34.574Z,25.45
2023-01-26T06:26:27.588Z,27.58
2023-01-26T06:31:25.079Z,26.50
2023-01-26T06:36:21.709Z,28.38
2023-01-26T06:41:15.700Z,35.25
2023-01-26T06:46:09.477Z,29.40
2023-01-26T06:51:21.394Z,35.83
2023-01-26T06:56:15.347Z,42.85
2023-01-26T07:01:36.278Z,31.98
2023-01-26T07:06:29.426Z,26.00
2023-01-26T07:11:26.863Z,30.08
2023-01-26T07:16:19.739Z,33.28
2023-01-26T07:21:16.620Z,30.30
2023-01-26T07:26:14.421Z,29.77
2023-01-26T07:31:08.719Z,29.98
2023-01-26T07:36:02.436Z,30.73
2023-01-26T07:40:56.493Z,31.90
2023-01-26T07:46:10.755Z,31.25
2023-01-26T07:51:06.044Z,37.92
2023-01-26T07:56:12.004Z,33.85
2023-01-26T08:01:15.845Z,47.45
2023-01-26T08:06:12.405Z,45.75
2023-01-26T08:11:10.866Z,42.25
2023-01-26T08:16:12.803Z,45.50
2023-01-26T08:21:07.043Z,45.03
2023-01-26T08:26:12.480Z,43.42
2023-01-26T08:31:19.196Z,42.75
2023-01-26T08:36:13.330Z,45.42
2023-01-26T08:45:59.672Z,40.28
2023-01-26T08:50:59.220Z,68.65
2023-01-26T08:55:52.121Z,70.10
2023-01-26T09:00:49.194Z,102.60
2023-01-26T09:05:42.737Z,82.00
2023-01-26T09:10:39.630Z,61.23
2023-01-26T09:15:32.624Z,37.53
2023-01-26T09:20:25.987Z,23.45
2023-01-26T09:25:19.368Z,19.27
2023-01-26T09:30:12.884Z,18.33
2023-01-26T09:35:14.163Z,32.58
2023-01-26T09:40:18.190Z,29.85
2023-01-26T09:45:13.983Z,33.47
2023-01-26T09:50:20.838Z,34.22
2023-01-26T09:55:26.365Z,41.03
2023-01-26T10:00:36.616Z,33.60
2023-01-26T10:05:35.863Z,26.95
2023-01-26T10:10:35.070Z,27.80
2023-01-26T10:15:40.462Z,33.22
2023-01-26T10:20:43.295Z,31.75
2023-01-26T10:25:39.491Z,41.77
2023-01-26T10:30:33.785Z,32.20
2023-01-26T10:35:28.206Z,21.95
2023-01-26T10:40:21.123Z,20.52
2023-01-26T10:45:32.002Z,25.92
2023-01-26T10:50:26.369Z,21.65
2023-01-26T10:55:22.934Z,20.92
2023-01-26T11:00:30.052Z,21.63
2023-01-26T11:05:24.154Z,19.40
2023-01-26T11:10:21.824Z,19.92
2023-01-26T11:15:24.427Z,18.73
2023-01-26T11:21:05.064Z,21.37
2023-01-26T11:26:34.965Z,18.50
2023-01-26T11:31:40.901Z,19.42
2023-01-26T11:37:23.295Z,17.00
2023-01-26T11:42:27.871Z,22.00
2023-01-26T11:47:43.583Z,17.60
2023-01-26T11:52:59.050Z,17.25
2023-01-26T11:58:00.274Z,19.73
2023-01-26T12:03:02.365Z,21.88
2023-01-26T12:08:13.798Z,17.83
2023-01-26T12:13:39.949Z,20.33
2023-01-26T12:18:53.197Z,19.65
2023-01-26T12:24:04.644Z,19.13
2023-01-26T12:29:10.162Z,18.77
2023-01-26T12:34:04.292Z,17.83
2023-01-26T12:44:08.591Z,23.02
2023-01-26T12:49:21.055Z,19.27
2023-01-26T12:54:27.176Z,19.60
2023-01-26T12:59:46.444Z,16.13
2023-01-26T13:04:42.263Z,21.17
2023-01-26T13:09:35.421Z,18.90
2023-01-26T13:19:53.142Z,20.17
2023-01-26T13:24:49.005Z,20.55
2023-01-26T13:29:57.108Z,18.48
2023-01-26T13:35:00.360Z,14.77
2023-01-26T13:40:01.501Z,13.07
2023-01-26T13:45:07.062Z,36.17
2023-01-26T13:50:01.020Z,15.98
2023-01-26T13:54:58.085Z,17.42
2023-01-26T14:00:01.075Z,16.15
2023-01-26T14:04:58.029Z,15.10
2023-01-26T14:09:53.488Z,14.27
2023-01-26T14:14:48.844Z,16.38
2023-01-26T14:19:42.351Z,18.98
2023-01-26T14:24:41.542Z,18.88
2023-01-26T14:29:39.408Z,18.17
2023-01-26T14:34:32.809Z,18.65
2023-01-26T14:39:26.243Z,17.83
2023-01-26T14:49:19.595Z,25.73
2023-01-26T14:54:32.370Z,18.40
2023-01-26T14:59:33.899Z,18.75
2023-01-26T15:04:36.096Z,19.13
2023-01-26T15:09:29.420Z,20.10
2023-01-26T15:19:39.025Z,20.00
2023-01-26T15:24:32.587Z,19.52
2023-01-26T15:29:31.670Z,29.92
2023-01-26T15:34:48.016Z,22.85
2023-01-26T15:39:41.620Z,26.05
2023-01-26T15:44:35.462Z,27.50
2023-01-26T15:49:28.713Z,24.38
2023-01-26T15:54:21.956Z,27.40
2023-01-26T15:59:14.488Z,24.13
2023-01-26T16:04:09.263Z,24.83
2023-01-26T16:09:02.421Z,23.33
2023-01-26T16:18:57.722Z,30.63
2023-01-26T16:23:51.068Z,27.25
2023-01-26T16:28:44.816Z,33.25
2023-01-26T16:33:38.263Z,33.42
2023-01-26T16:38:30.499Z,34.73
2023-01-26T16:43:25.070Z,41.25
2023-01-26T16:48:18.919Z,40.45
2023-01-26T16:53:31.544Z,34.30
2023-01-26T16:58:26.666Z,38.85
2023-01-26T17:03:20.582Z,39.78
2023-01-26T17:08:13.929Z,32.28
2023-01-26T17:13:07.375Z,40.45
2023-01-26T17:18:02.264Z,35.63
2023-01-26T17:22:55.339Z,43.83
2023-01-26T17:27:50.199Z,53.60
2023-01-26T17:32:44.787Z,67.82
2023-01-26T17:37:39.157Z,77.60
2023-01-26T17:42:35.646Z,73.40
2023-01-26T17:47:29.297Z,73.43
2023-01-26T17:52:22.891Z,80.97
2023-01-26T17:57:16.691Z,78.85
2023-01-26T18:02:13.042Z,85.75
2023-01-26T18:07:06.729Z,57.80
2023-01-26T18:11:59.700Z,60.28
2023-01-26T18:16:52.730Z,62.38
2023-01-26T18:26:39.415Z,71.25
2023-01-26T18:31:37.622Z,55.25
2023-01-26T18:36:31.604Z,53.95
2023-01-26T18:41:25.406Z,52.05
2023-01-26T18:46:19.436Z,55.75
2023-01-26T18:56:10.379Z,56.17
2023-01-26T19:01:06.119Z,56.67
2023-01-26T19:06:03.627Z,49.35
2023-01-26T19:10:56.715Z,57.10
2023-01-26T19:15:50.443Z,51.70
2023-01-26T19:20:43.543Z,59.13
2023-01-26T19:25:38.347Z,71.32
2023-01-26T19:30:31.019Z,58.63
2023-01-26T19:40:18.227Z,51.67
2023-01-26T19:45:12.233Z,55.95
2023-01-26T19:50:07.724Z,54.53
2023-01-26T19:55:00.754Z,48.35
2023-01-26T20:04:48.827Z,46.10
2023-01-26T20:09:42.086Z,38.90
2023-01-26T20:14:36.202Z,37.35
2023-01-26T20:19:29.863Z,42.17
2023-01-26T20:29:19.186Z,38.03
2023-01-26T20:34:14.572Z,44.53
2023-01-26T20:39:09.624Z,63.92
2023-01-26T20:44:04.998Z,41.30
2023-01-26T20:48:58.356Z,39.88
2023-01-26T20:58:44.491Z,39.72
2023-01-26T21:03:38.967Z,50.33
2023-01-26T21:08:32.601Z,41.20
2023-01-26T21:18:18.924Z,42.70
2023-01-26T21:23:14.075Z,45.58
2023-01-26T21:28:07.419Z,45.45
2023-01-26T21:33:00.647Z,41.97
2023-01-26T21:37:54.481Z,37.63
2023-01-26T21:42:48.808Z,37.08
2023-01-26T21:47:42.709Z,32.22
2023-01-26T21:52:54.898Z,28.52
2023-01-26T21:58:06.828Z,30.98
2023-01-26T22:03:01.167Z,28.98
2023-01-26T22:07:55.582Z,36.88
2023-01-26T22:12:49.577Z,39.50
2023-01-26T22:17:42.143Z,38.05
2023-01-26T22:22:35.623Z,39.85
2023-01-26T22:32:21.551Z,29.33
2023-01-26T22:42:08.103Z,30.93
2023-01-26T22:47:01.934Z,30.67
2023-01-26T22:51:55.122Z,34.78
2023-01-26T22:56:49.264Z,35.05
2023-01-26T23:01:43.574Z,37.83
2023-01-26T23:06:37.227Z,40.13
2023-01-26T23:11:31.157Z,40.83
2023-01-26T23:16:25.074Z,30.77
2023-01-26T23:26:11.637Z,32.08
2023-01-26T23:35:59.061Z,26.70
2023-01-26T23:40:53.900Z,30.13
2023-01-26T23:45:47.960Z,26.50
2023-01-26T23:50:40.525Z,27.35
2023-01-26T23:55:33.381Z,27.15
